Time;durP1;ratioP1;P1;durP2;ratioP2;P2;SDS_P1;SDS_P2;PMS_P1;PMS_P2;Temp;Humidity;BMP_temperature;BMP_pressure;BME280_temperature;BME280_humidity;BME280_pressure;Samples;Min_cycle;Max_cycle;Signal;HPM_P1;HPM_P2
2022/06/05 00:00:07;;;;;;;4.43;3.70;;;;;;;;;;7379608;19;20193;-77
2022/06/05 00:02:57;;;;;;;6.20;4.22;;;;;;;;;;7379734;19;20246;-77
2022/06/05 00:05:28;;;;;;;4.95;4.20;;;;;;;;;;7380091;19;20189;-77
2022/06/05 00:07:57;;;;;;;5.43;4.50;;;;;;;;;;7377245;19;20167;-78
2022/06/05 00:10:34;;;;;;;5.20;4.70;;;;;;;;;;7381974;19;20152;-77
2022/06/05 00:13:12;;;;;;;5.07;4.57;;;;;;;;;;7378033;19;20432;-78
2022/06/05 00:15:38;;;;;;;5.03;4.63;;;;;;;;;;7377878;19;20443;-78
2022/06/05 00:18:05;;;;;;;4.93;4.43;;;;;;;;;;7379033;19;20611;-78
2022/06/05 00:20:31;;;;;;;5.03;4.03;;;;;;;;;;7378062;19;20580;-78
2022/06/05 00:22:58;;;;;;;6.28;4.65;;;;;;;;;;7389671;19;20143;-78
2022/06/05 00:25:26;;;;;;;7.30;4.75;;;;;;;;;;7390582;19;20253;-77
2022/06/05 00:28:09;;;;;;;6.10;5.50;;;;;;;;;;7387603;19;20153;-78
2022/06/05 00:30:42;;;;;;;5.72;4.35;;;;;;;;;;7389886;19;20137;-79
2022/06/05 00:33:13;;;;;;;7.18;4.88;;;;;;;;;;7382654;19;20137;-78
2022/06/05 00:35:47;;;;;;;7.82;4.80;;;;;;;;;;7387113;19;20726;-78
2022/06/05 00:38:18;;;;;;;5.07;4.18;;;;;;;;;;7390290;19;20661;-78
2022/06/05 00:40:44;;;;;;;5.95;4.97;;;;;;;;;;7387343;19;20141;-78
2022/06/05 00:43:12;;;;;;;6.07;4.85;;;;;;;;;;7386756;19;20519;-79
2022/06/05 00:45:39;;;;;;;5.40;4.90;;;;;;;;;;7384297;19;20156;-78
2022/06/05 00:48:05;;;;;;;4.85;4.30;;;;;;;;;;7388205;19;20129;-77
2022/06/05 00:50:32;;;;;;;5.28;4.47;;;;;;;;;;7379028;19;20160;-78
2022/06/05 00:52:59;;;;;;;5.00;4.57;;;;;;;;;;7380108;19;20133;-77
2022/06/05 00:55:27;;;;;;;5.72;4.50;;;;;;;;;;7385619;19;20162;-78
2022/06/05 00:57:54;;;;;;;6.97;4.70;;;;;;;;;;7383767;19;20125;-78
2022/06/05 01:00:25;;;;;;;7.90;4.95;;;;;;;;;;7378493;19;20641;-77
2022/06/05 01:02:53;;;;;;;5.13;4.63;;;;;;;;;;7382298;19;20171;-78
2022/06/05 01:05:20;;;;;;;6.65;4.75;;;;;;;;;;7373385;19;20678;-77
2022/06/05 01:07:47;;;;;;;5.25;4.63;;;;;;;;;;7369487;19;20129;-78
2022/06/05 01:10:13;;;;;;;5.13;4.72;;;;;;;;;;7374580;19;20137;-78
2022/06/05 01:12:50;;;;;;;6.60;5.10;;;;;;;;;;7378490;19;20772;-77
2022/06/05 01:15:35;;;;;;;4.90;4.30;;;;;;;;;;7376922;19;20623;-79
2022/06/05 01:18:10;;;;;;;6.03;4.53;;;;;;;;;;7380881;19;20196;-85
2022/06/05 01:20:36;;;;;;;5.68;4.68;;;;;;;;;;7393955;19;20153;-87
2022/06/05 01:23:11;;;;;;;6.18;4.90;;;;;;;;;;7396006;19;20185;-87
2022/06/05 01:26:07;;;;;;;5.53;4.90;;;;;;;;;;7394972;19;20152;-87
2022/06/05 01:28:36;;;;;;;5.60;4.90;;;;;;;;;;7390319;19;21216;-89
2022/06/05 01:31:14;;;;;;;6.65;4.53;;;;;;;;;;7389175;19;20136;-88
2022/06/05 01:33:44;;;;;;;5.57;5.07;;;;;;;;;;7387456;19;20743;-89
2022/06/05 01:36:10;;;;;;;6.07;4.68;;;;;;;;;;7389663;19;20163;-89
2022/06/05 01:38:38;;;;;;;5.57;5.05;;;;;;;;;;7387055;19;20208;-87
2022/06/05 01:41:13;;;;;;;6.00;5.00;;;;;;;;;;7391531;19;20129;-88
2022/06/05 01:43:41;;;;;;;5.75;5.25;;;;;;;;;;7391390;19;20151;-87
2022/06/05 01:46:10;;;;;;;6.45;4.47;;;;;;;;;;7385181;19;20152;-88
2022/06/05 01:48:40;;;;;;;6.13;5.45;;;;;;;;;;7389449;19;20631;-88
2022/06/05 01:51:11;;;;;;;6.20;5.10;;;;;;;;;;7388536;19;20149;-87
2022/06/05 01:53:40;;;;;;;5.30;4.80;;;;;;;;;;7387722;19;20225;-87
2022/06/05 01:56:24;;;;;;;5.82;4.68;;;;;;;;;;7392778;19;20133;-87
2022/06/05 01:58:54;;;;;;;5.70;5.20;;;;;;;;;;7384958;19;20205;-87
2022/06/05 02:01:22;;;;;;;6.82;4.90;;;;;;;;;;7391695;19;20151;-88
2022/06/05 02:03:57;;;;;;;6.03;5.20;;;;;;;;;;7419068;19;20141;-87
2022/06/05 02:06:25;;;;;;;6.35;4.70;;;;;;;;;;7424763;19;20152;-87
2022/06/05 02:08:55;;;;;;;5.88;5.00;;;;;;;;;;7420595;19;20153;-88
2022/06/05 02:11:25;;;;;;;5.55;5.05;;;;;;;;;;7425434;19;20144;-88
2022/06/05 02:13:54;;;;;;;5.13;4.68;;;;;;;;;;7425672;19;20136;-88
2022/06/05 02:16:20;;;;;;;7.25;5.18;;;;;;;;;;7399815;19;20152;-89
2022/06/05 02:18:46;;;;;;;5.68;5.18;;;;;;;;;;7406059;19;20164;-88
2022/06/05 02:21:12;;;;;;;6.80;5.25;;;;;;;;;;7418209;19;20148;-89
2022/06/05 02:23:39;;;;;;;6.82;4.90;;;;;;;;;;7418370;19;20162;-87
2022/06/05 02:26:06;;;;;;;5.28;4.85;;;;;;;;;;7421195;19;20132;-88
2022/06/05 02:28:32;;;;;;;6.75;5.25;;;;;;;;;;7420470;19;20167;-90
2022/06/05 02:31:20;;;;;;;5.78;4.82;;;;;;;;;;7422064;19;20145;-89
2022/06/05 02:33:46;;;;;;;6.25;5.65;;;;;;;;;;7422273;19;20156;-88
2022/06/05 02:36:28;;;;;;;6.22;5.63;;;;;;;;;;7424448;19;20117;-89
2022/06/05 02:39:02;;;;;;;7.68;5.90;;;;;;;;;;7418800;19;20145;-89
2022/06/05 02:41:32;;;;;;;7.57;6.05;;;;;;;;;;7417705;19;20140;-90
2022/06/05 02:47:00;;;;;;;6.63;5.80;;;;;;;;;;7390978;19;20214;-90
2022/06/05 02:49:29;;;;;;;6.50;5.75;;;;;;;;;;7388707;19;20120;-87
2022/06/05 02:51:57;;;;;;;5.72;5.22;;;;;;;;;;7388499;19;20251;-90
2022/06/05 02:54:26;;;;;;;6.00;4.85;;;;;;;;;;7385959;19;20155;-89
2022/06/05 02:56:53;;;;;;;6.35;5.55;;;;;;;;;;7388399;19;20152;-90
2022/06/05 02:59:20;;;;;;;6.45;5.45;;;;;;;;;;7381988;19;20567;-90
2022/06/05 03:04:30;;;;;;;6.03;5.38;;;;;;;;;;7383992;19;20143;-90
2022/06/05 03:06:56;;;;;;;5.57;5.10;;;;;;;;;;7386532;19;20540;-90
2022/06/05 03:09:22;;;;;;;7.43;5.78;;;;;;;;;;7386333;19;20125;-90
2022/06/05 03:11:48;;;;;;;5.90;5.07;;;;;;;;;;7381440;19;20517;-90
2022/06/05 03:14:14;;;;;;;6.22;5.25;;;;;;;;;;7387152;19;20148;-89
2022/06/05 03:16:40;;;;;;;6.43;5.65;;;;;;;;;;7397415;19;20620;-90
2022/06/05 03:19:06;;;;;;;7.45;4.90;;;;;;;;;;7381470;19;20176;-90
2022/06/05 03:21:33;;;;;;;7.15;5.13;;;;;;;;;;7382914;19;20129;-89
2022/06/05 03:23:59;;;;;;;6.60;5.03;;;;;;;;;;7385084;19;20184;-90
2022/06/05 03:26:25;;;;;;;6.22;5.28;;;;;;;;;;7385606;19;20134;-91
2022/06/05 03:28:51;;;;;;;6.85;4.88;;;;;;;;;;7388859;19;20168;-91
2022/06/05 03:31:17;;;;;;;5.60;5.10;;;;;;;;;;7389257;19;20192;-88
2022/06/05 03:33:43;;;;;;;6.03;4.65;;;;;;;;;;7385990;19;20167;-88
2022/06/05 03:36:13;;;;;;;6.03;5.32;;;;;;;;;;7378824;19;20149;-89
2022/06/05 03:38:39;;;;;;;11.35;5.20;;;;;;;;;;7382583;19;20659;-90
2022/06/05 03:41:05;;;;;;;6.25;4.40;;;;;;;;;;7387905;19;20420;-91
2022/06/05 03:43:31;;;;;;;6.15;4.97;;;;;;;;;;7384151;19;20133;-90
2022/06/05 03:46:09;;;;;;;5.43;4.90;;;;;;;;;;7386955;19;20156;-91
2022/06/05 03:48:36;;;;;;;5.55;5.00;;;;;;;;;;7386745;19;20268;-91
2022/06/05 03:51:05;;;;;;;5.18;4.38;;;;;;;;;;7394177;19;20649;-90
2022/06/05 03:53:31;;;;;;;4.80;4.30;;;;;;;;;;7398501;19;20162;-92
2022/06/05 03:55:57;;;;;;;4.88;4.47;;;;;;;;;;7399609;19;20257;-92
2022/06/05 03:58:23;;;;;;;7.30;5.05;;;;;;;;;;7395349;19;20176;-94
2022/06/05 04:00:51;;;;;;;6.18;5.53;;;;;;;;;;7397417;19;20613;-93
2022/06/05 04:03:17;;;;;;;8.60;5.55;;;;;;;;;;7392227;19;20129;-91
2022/06/05 04:05:44;;;;;;;5.38;4.40;;;;;;;;;;7394491;19;20169;-92
2022/06/05 04:08:14;;;;;;;8.23;5.20;;;;;;;;;;7390715;19;20187;-93
2022/06/05 04:10:40;;;;;;;5.18;4.68;;;;;;;;;;7393222;19;20154;-91
2022/06/05 04:13:06;;;;;;;6.53;5.22;;;;;;;;;;7396160;19;20200;-92
2022/06/05 04:15:37;;;;;;;8.02;5.57;;;;;;;;;;7391408;19;20125;-92
2022/06/05 04:18:03;;;;;;;9.10;5.45;;;;;;;;;;7393281;19;20232;-91
2022/06/05 04:20:29;;;;;;;6.85;6.07;;;;;;;;;;7395238;19;20568;-93
2022/06/05 04:22:55;;;;;;;15.52;6.57;;;;;;;;;;7393214;19;20143;-92
2022/06/05 04:25:21;;;;;;;10.50;7.03;;;;;;;;;;7393247;19;20506;-91
2022/06/05 04:27:47;;;;;;;7.75;7.03;;;;;;;;;;7390340;19;20168;-93
2022/06/05 04:30:13;;;;;;;7.28;6.60;;;;;;;;;;7389834;19;20224;-93
2022/06/05 04:32:39;;;;;;;8.48;7.68;;;;;;;;;;7395439;19;20136;-94
2022/06/05 04:35:05;;;;;;;9.60;7.00;;;;;;;;;;7392162;19;20208;-93
2022/06/05 04:37:38;;;;;;;7.70;6.68;;;;;;;;;;7391215;19;20228;-93
2022/06/05 04:40:14;;;;;;;7.78;6.60;;;;;;;;;;7391460;19;20126;-92
2022/06/05 04:42:40;;;;;;;7.82;7.03;;;;;;;;;;7392657;19;20136;-92
2022/06/05 04:45:07;;;;;;;8.77;6.65;;;;;;;;;;7392848;19;20213;-92
2022/06/05 04:47:33;;;;;;;9.10;7.35;;;;;;;;;;7393039;19;20173;-92
2022/06/05 04:50:00;;;;;;;7.50;6.80;;;;;;;;;;7389725;19;20136;-92
2022/06/05 04:52:26;;;;;;;8.25;6.65;;;;;;;;;;7390964;19;20141;-93
2022/06/05 04:54:52;;;;;;;6.07;5.47;;;;;;;;;;7392431;19;20137;-93
2022/06/05 04:57:18;;;;;;;9.40;6.35;;;;;;;;;;7390437;19;20203;-90
2022/06/05 04:59:44;;;;;;;6.55;5.97;;;;;;;;;;7388025;19;20153;-93
2022/06/05 05:02:10;;;;;;;6.15;5.65;;;;;;;;;;7391518;19;20520;-93
2022/06/05 05:04:36;;;;;;;6.57;6.03;;;;;;;;;;7389474;19;20715;-93
2022/06/05 05:07:03;;;;;;;6.40;5.57;;;;;;;;;;7390362;19;20137;-94
2022/06/05 05:09:29;;;;;;;7.15;6.10;;;;;;;;;;7397183;19;20148;-92
2022/06/05 05:11:55;;;;;;;6.97;6.30;;;;;;;;;;7399035;19;20133;-93
2022/06/05 05:14:22;;;;;;;6.75;5.80;;;;;;;;;;7399349;19;20529;-92
2022/06/05 05:16:48;;;;;;;6.60;5.82;;;;;;;;;;7399267;19;20712;-93
2022/06/05 05:19:14;;;;;;;10.52;6.35;;;;;;;;;;7395547;19;20160;-93
2022/06/05 05:21:40;;;;;;;7.75;5.82;;;;;;;;;;7398361;19;20133;-93
2022/06/05 05:24:07;;;;;;;6.82;6.22;;;;;;;;;;7398654;19;20145;-94
2022/06/05 05:26:34;;;;;;;8.45;7.32;;;;;;;;;;7398737;19;20147;-92
2022/06/05 05:29:01;;;;;;;7.38;6.07;;;;;;;;;;7394515;19;20640;-92
2022/06/05 05:31:31;;;;;;;7.70;6.43;;;;;;;;;;7397159;19;20129;-95
2022/06/05 05:33:58;;;;;;;7.30;6.57;;;;;;;;;;7401003;19;20157;-94
2022/06/05 05:36:24;;;;;;;8.07;6.40;;;;;;;;;;7400874;19;20516;-94
2022/06/05 05:44:21;;;;;;;6.55;5.88;;;;;;;;;;7400352;19;20152;-93
2022/06/05 05:46:48;;;;;;;8.23;6.80;;;;;;;;;;7397193;19;20168;-94
2022/06/05 05:49:14;;;;;;;7.10;6.40;;;;;;;;;;7396386;19;20168;-93
2022/06/05 05:51:41;;;;;;;8.00;6.93;;;;;;;;;;7399028;19;20133;-94
2022/06/05 05:54:08;;;;;;;8.60;6.10;;;;;;;;;;7398918;19;20137;-93
2022/06/05 05:56:35;;;;;;;6.57;5.97;;;;;;;;;;7400170;19;20465;-90
2022/06/05 05:59:01;;;;;;;6.15;5.55;;;;;;;;;;7396804;19;20159;-91
2022/06/05 06:01:27;;;;;;;6.03;4.90;;;;;;;;;;7395460;19;20141;-90
2022/06/05 06:03:53;;;;;;;8.25;5.65;;;;;;;;;;7394833;19;20145;-88
2022/06/05 06:06:23;;;;;;;6.53;5.90;;;;;;;;;;7392825;19;20194;-88
2022/06/05 06:08:49;;;;;;;8.20;6.10;;;;;;;;;;7392552;19;20204;-86
2022/06/05 06:11:15;;;;;;;8.02;6.40;;;;;;;;;;7394543;19;20140;-89
2022/06/05 06:13:42;;;;;;;7.57;6.22;;;;;;;;;;7395778;19;20223;-88
2022/06/05 06:16:08;;;;;;;6.38;5.78;;;;;;;;;;7393135;19;20148;-88
2022/06/05 06:18:34;;;;;;;6.20;5.65;;;;;;;;;;7390337;19;20209;-88
2022/06/05 06:21:00;;;;;;;7.40;6.20;;;;;;;;;;7398156;19;20156;-88
2022/06/05 06:23:26;;;;;;;8.60;5.25;;;;;;;;;;7396869;19;20180;-88
2022/06/05 06:25:52;;;;;;;9.32;4.65;;;;;;;;;;7390015;19;20149;-89
2022/06/05 06:28:18;;;;;;;4.93;4.45;;;;;;;;;;7394335;19;20191;-90
2022/06/05 06:30:45;;;;;;;4.85;4.20;;;;;;;;;;7395028;19;20157;-89
2022/06/05 06:33:11;;;;;;;9.20;5.05;;;;;;;;;;7397500;19;20522;-90
2022/06/05 06:35:37;;;;;;;7.72;3.92;;;;;;;;;;7395577;19;20129;-90
2022/06/05 06:38:04;;;;;;;5.55;4.30;;;;;;;;;;7398584;19;20177;-88
2022/06/05 06:40:30;;;;;;;5.28;3.92;;;;;;;;;;7395540;19;20149;-89
2022/06/05 06:42:57;;;;;;;7.32;3.75;;;;;;;;;;7394117;19;20157;-89
2022/06/05 06:45:23;;;;;;;4.70;4.07;;;;;;;;;;7393921;19;20153;-89
2022/06/05 06:47:49;;;;;;;4.88;3.88;;;;;;;;;;7393251;19;20518;-90
2022/06/05 06:50:15;;;;;;;5.63;3.92;;;;;;;;;;7393675;19;20159;-88
2022/06/05 06:52:41;;;;;;;6.40;3.70;;;;;;;;;;7392979;19;20156;-87
2022/06/05 06:55:08;;;;;;;7.30;3.72;;;;;;;;;;7402442;19;20149;-87
2022/06/05 06:57:34;;;;;;;9.55;4.38;;;;;;;;;;7402707;19;20150;-88
2022/06/05 07:00:00;;;;;;;6.97;4.22;;;;;;;;;;7401212;19;20235;-90
2022/06/05 07:02:26;;;;;;;8.60;3.78;;;;;;;;;;7405588;19;20133;-88
2022/06/05 07:04:52;;;;;;;7.68;3.88;;;;;;;;;;7399767;19;20161;-88
2022/06/05 07:07:18;;;;;;;8.07;3.72;;;;;;;;;;7400082;19;20169;-88
2022/06/05 07:09:44;;;;;;;10.15;3.47;;;;;;;;;;7401619;19;20143;-87
2022/06/05 07:12:10;;;;;;;9.10;4.00;;;;;;;;;;7400871;19;20141;-86
2022/06/05 07:14:36;;;;;;;5.63;3.63;;;;;;;;;;7400684;19;20168;-87
2022/06/05 07:17:02;;;;;;;7.15;3.67;;;;;;;;;;7402542;19;20132;-86
2022/06/05 07:19:28;;;;;;;5.80;4.20;;;;;;;;;;7397610;19;20132;-87
2022/06/05 07:21:54;;;;;;;7.20;4.15;;;;;;;;;;7400975;19;20137;-86
2022/06/05 07:24:20;;;;;;;4.45;4.05;;;;;;;;;;7400158;19;20155;-88
2022/06/05 07:26:46;;;;;;;5.20;3.80;;;;;;;;;;7400815;19;20121;-88
2022/06/05 07:29:12;;;;;;;7.70;3.88;;;;;;;;;;7394255;19;20237;-88
2022/06/05 07:31:38;;;;;;;7.40;3.85;;;;;;;;;;7395422;19;20129;-89
2022/06/05 07:34:07;;;;;;;9.10;4.05;;;;;;;;;;7399117;19;20145;-86
2022/06/05 07:36:33;;;;;;;6.93;4.13;;;;;;;;;;7400589;19;20181;-87
2022/06/05 07:39:02;;;;;;;7.03;3.90;;;;;;;;;;7400644;19;20168;-87
2022/06/05 07:41:30;;;;;;;5.68;3.92;;;;;;;;;;7397833;19;20152;-86
2022/06/05 07:43:56;;;;;;;7.03;3.85;;;;;;;;;;7393438;19;20680;-89
2022/06/05 07:46:23;;;;;;;8.90;4.68;;;;;;;;;;7399702;19;20164;-87
2022/06/05 07:48:49;;;;;;;5.15;3.63;;;;;;;;;;7396485;19;20148;-88
2022/06/05 07:56:47;;;;;;;8.02;3.60;;;;;;;;;;7394972;19;20154;-89
2022/06/05 07:59:13;;;;;;;7.28;4.00;;;;;;;;;;7389973;19;20169;-89
2022/06/05 08:01:39;;;;;;;9.52;4.15;;;;;;;;;;7393693;19;20159;-88
2022/06/05 08:04:05;;;;;;;7.40;3.80;;;;;;;;;;7391885;19;20164;-88
2022/06/05 08:06:34;;;;;;;5.13;3.78;;;;;;;;;;7390465;19;20152;-88
2022/06/05 08:09:00;;;;;;;5.95;3.90;;;;;;;;;;7391456;19;20270;-88
2022/06/05 08:11:26;;;;;;;6.60;3.83;;;;;;;;;;7392797;19;20164;-90
2022/06/05 08:13:51;;;;;;;7.38;3.83;;;;;;;;;;7389493;19;20617;-89
2022/06/05 08:16:18;;;;;;;4.80;3.80;;;;;;;;;;7393171;19;20624;-88
2022/06/05 08:18:44;;;;;;;9.82;4.40;;;;;;;;;;7386585;19;20173;-87
2022/06/05 08:21:10;;;;;;;7.00;3.95;;;;;;;;;;7393379;19;20260;-88
2022/06/05 08:23:36;;;;;;;5.70;4.18;;;;;;;;;;7397631;19;20137;-89
2022/06/05 08:26:02;;;;;;;7.28;3.97;;;;;;;;;;7398678;19;20620;-86
2022/06/05 08:28:28;;;;;;;9.00;4.47;;;;;;;;;;7392828;19;20585;-87
2022/06/05 08:30:54;;;;;;;7.78;4.22;;;;;;;;;;7393151;19;20305;-88
2022/06/05 08:33:21;;;;;;;6.72;4.30;;;;;;;;;;7385873;19;20180;-87
2022/06/05 08:35:49;;;;;;;7.55;4.53;;;;;;;;;;7392677;19;20153;-87
2022/06/05 08:41:27;;;;;;;7.40;4.07;;;;;;;;;;7393996;19;20142;-87
2022/06/05 08:44:12;;;;;;;7.45;4.20;;;;;;;;;;7399318;19;20145;-87
2022/06/05 08:46:41;;;;;;;10.63;4.53;;;;;;;;;;7400930;19;20152;-87
2022/06/05 08:49:10;;;;;;;5.93;4.25;;;;;;;;;;7404873;19;20156;-88
2022/06/05 08:51:42;;;;;;;7.10;4.65;;;;;;;;;;7409590;19;20220;-86
2022/06/05 08:54:17;;;;;;;8.45;4.75;;;;;;;;;;7410524;19;20137;-87
2022/06/05 08:56:48;;;;;;;9.57;4.95;;;;;;;;;;7407528;19;20148;-86
2022/06/05 08:59:14;;;;;;;8.40;4.13;;;;;;;;;;7401246;19;20149;-89
2022/06/05 09:01:44;;;;;;;8.25;4.43;;;;;;;;;;7402203;19;20637;-90
2022/06/05 09:04:19;;;;;;;7.53;4.32;;;;;;;;;;7401828;19;20143;-86
2022/06/05 09:06:48;;;;;;;7.10;4.45;;;;;;;;;;7403584;19;20193;-87
2022/06/05 09:09:19;;;;;;;4.97;4.20;;;;;;;;;;7399724;19;20152;-86
2022/06/05 09:11:52;;;;;;;7.93;5.97;;;;;;;;;;7400207;19;20153;-87
2022/06/05 09:14:29;;;;;;;8.25;5.03;;;;;;;;;;7405824;19;20182;-87
2022/06/05 09:16:57;;;;;;;8.13;5.13;;;;;;;;;;7400619;19;20524;-88
2022/06/05 09:19:25;;;;;;;10.70;6.10;;;;;;;;;;7397485;19;20149;-88
2022/06/05 09:21:56;;;;;;;8.30;4.97;;;;;;;;;;7396275;19;20137;-88
2022/06/05 09:24:32;;;;;;;8.05;4.38;;;;;;;;;;7400172;19;20136;-89
2022/06/05 09:27:02;;;;;;;8.82;4.72;;;;;;;;;;7402736;19;20136;-88
2022/06/05 09:29:33;;;;;;;6.40;4.68;;;;;;;;;;7398144;19;20166;-89
2022/06/05 09:32:15;;;;;;;9.32;5.25;;;;;;;;;;7402526;19;20133;-89
2022/06/05 09:34:59;;;;;;;9.15;4.70;;;;;;;;;;7402436;19;20154;-89
2022/06/05 09:37:44;;;;;;;9.85;4.70;;;;;;;;;;7401176;19;20198;-88
2022/06/05 09:40:16;;;;;;;8.20;4.80;;;;;;;;;;7392981;19;20151;-88
2022/06/05 09:42:41;;;;;;;7.95;5.03;;;;;;;;;;7395670;19;20160;-89
2022/06/05 09:45:15;;;;;;;7.45;5.55;;;;;;;;;;7395616;19;20228;-88
2022/06/05 09:47:49;;;;;;;9.88;5.72;;;;;;;;;;7397559;19;20188;-88
2022/06/05 09:50:26;;;;;;;8.77;5.78;;;;;;;;;;7393618;19;20148;-87
2022/06/05 09:52:52;;;;;;;8.52;5.30;;;;;;;;;;7396361;19;20492;-88
2022/06/05 09:55:44;;;;;;;9.50;4.60;;;;;;;;;;7400398;19;20148;-87
2022/06/05 09:58:31;;;;;;;11.18;5.00;;;;;;;;;;7397743;19;20188;-85
2022/06/05 10:01:20;;;;;;;11.63;5.07;;;;;;;;;;7404318;19;20143;-87
2022/06/05 10:03:46;;;;;;;8.63;4.55;;;;;;;;;;7402396;19;20189;-87
2022/06/05 10:06:17;;;;;;;6.68;5.20;;;;;;;;;;7400111;19;20157;-88
2022/06/05 10:08:45;;;;;;;9.20;6.30;;;;;;;;;;7398889;19;20617;-87
2022/06/05 10:11:25;;;;;;;6.95;5.85;;;;;;;;;;7390442;19;20168;-87
2022/06/05 10:14:03;;;;;;;7.53;6.15;;;;;;;;;;7394749;19;20619;-86
2022/06/05 10:16:35;;;;;;;9.35;5.43;;;;;;;;;;7396460;19;20277;-86
2022/06/05 10:19:11;;;;;;;11.18;5.13;;;;;;;;;;7387379;19;20523;-86
2022/06/05 10:21:40;;;;;;;8.10;4.72;;;;;;;;;;7399899;19;20133;-86
2022/06/05 10:24:27;;;;;;;5.18;4.53;;;;;;;;;;7392754;19;20455;-86
2022/06/05 10:26:54;;;;;;;4.53;3.92;;;;;;;;;;7395119;19;20533;-86
2022/06/05 10:29:26;;;;;;;6.78;5.00;;;;;;;;;;7387675;19;20529;-86
2022/06/05 10:32:01;;;;;;;8.77;4.18;;;;;;;;;;7392710;19;20170;-88
2022/06/05 10:34:30;;;;;;;6.28;4.45;;;;;;;;;;7391439;19;20185;-87
2022/06/05 10:37:04;;;;;;;8.27;4.80;;;;;;;;;;7393222;19;20161;-89
2022/06/05 10:39:41;;;;;;;9.27;6.10;;;;;;;;;;7395144;19;20137;-89
2022/06/05 10:42:13;;;;;;;8.30;5.00;;;;;;;;;;7393465;19;20802;-87
2022/06/05 10:45:01;;;;;;;6.95;5.05;;;;;;;;;;7392026;19;20854;-91
2022/06/05 10:47:32;;;;;;;11.90;4.55;;;;;;;;;;7393842;19;20302;-89
2022/06/05 10:50:05;;;;;;;8.85;4.95;;;;;;;;;;7392302;19;20148;-91
2022/06/05 10:52:32;;;;;;;6.32;3.00;;;;;;;;;;7392416;19;20176;-90
2022/06/05 10:55:10;;;;;;;7.50;3.20;;;;;;;;;;7390488;19;20145;-91
2022/06/05 10:57:38;;;;;;;21.92;5.93;;;;;;;;;;7392716;19;20172;-90
2022/06/05 11:00:17;;;;;;;12.13;4.38;;;;;;;;;;7394894;19;20133;-86
2022/06/05 11:03:02;;;;;;;14.70;5.40;;;;;;;;;;7393283;19;20677;-88
2022/06/05 11:05:31;;;;;;;12.43;5.32;;;;;;;;;;7392858;19;20156;-90
2022/06/05 11:08:18;;;;;;;12.20;4.53;;;;;;;;;;7394607;19;20173;-88
2022/06/05 11:14:08;;;;;;;9.90;4.60;;;;;;;;;;7394914;19;20135;-88
2022/06/05 11:16:38;;;;;;;9.02;4.03;;;;;;;;;;7394039;19;20165;-87
2022/06/05 11:19:22;;;;;;;7.18;3.42;;;;;;;;;;7397089;19;20506;-88
2022/06/05 11:21:50;;;;;;;8.05;3.80;;;;;;;;;;7395739;19;20148;-89
2022/06/05 11:24:27;;;;;;;9.05;3.47;;;;;;;;;;7396762;19;21087;-90
2022/06/05 11:27:06;;;;;;;9.35;3.67;;;;;;;;;;7398160;19;20148;-85
2022/06/05 11:29:34;;;;;;;8.73;2.85;;;;;;;;;;7396013;19;20532;-84
2022/06/05 11:32:04;;;;;;;6.75;3.13;;;;;;;;;;7398515;19;20141;-92
2022/06/05 11:34:34;;;;;;;7.38;2.60;;;;;;;;;;7393815;19;20154;-90
2022/06/05 11:37:17;;;;;;;7.82;3.10;;;;;;;;;;7395510;19;20151;-90
2022/06/05 11:39:44;;;;;;;6.50;2.72;;;;;;;;;;7395988;19;20152;-87
2022/06/05 11:42:21;;;;;;;6.63;2.60;;;;;;;;;;7401270;19;20149;-84
2022/06/05 11:45:20;;;;;;;8.40;3.25;;;;;;;;;;7397016;19;20692;-86
2022/06/05 11:48:02;;;;;;;4.82;2.65;;;;;;;;;;7394930;19;20823;-84
2022/06/05 11:50:37;;;;;;;4.95;2.42;;;;;;;;;;7396975;19;20155;-84
2022/06/05 11:53:12;;;;;;;7.15;3.15;;;;;;;;;;7396494;19;20152;-85
2022/06/05 11:55:41;;;;;;;6.13;3.45;;;;;;;;;;7394689;19;20148;-85
2022/06/05 11:58:11;;;;;;;6.45;2.85;;;;;;;;;;7396072;19;20148;-87
2022/06/05 12:00:45;;;;;;;5.63;3.03;;;;;;;;;;7393402;19;20128;-88
2022/06/05 12:03:11;;;;;;;5.53;2.95;;;;;;;;;;7408747;19;20125;-91
2022/06/05 12:05:43;;;;;;;8.68;3.10;;;;;;;;;;7427858;19;20139;-91
2022/06/05 12:08:11;;;;;;;7.10;3.50;;;;;;;;;;7425364;19;20196;-90
2022/06/05 12:10:48;;;;;;;4.65;2.40;;;;;;;;;;7424936;19;20136;-92
2022/06/05 12:13:27;;;;;;;5.50;2.50;;;;;;;;;;7424611;19;20140;-90
2022/06/05 12:15:58;;;;;;;5.82;2.75;;;;;;;;;;7422842;19;20156;-89
2022/06/05 12:18:30;;;;;;;8.73;2.83;;;;;;;;;;7402240;19;20175;-91
2022/06/05 12:21:02;;;;;;;8.48;3.03;;;;;;;;;;7405910;19;20156;-89
2022/06/05 12:23:35;;;;;;;4.80;2.70;;;;;;;;;;7405355;19;20176;-85
2022/06/05 12:26:02;;;;;;;5.68;3.05;;;;;;;;;;7410779;19;20133;-88
2022/06/05 12:28:47;;;;;;;5.68;2.50;;;;;;;;;;7427009;19;20204;-89
2022/06/05 12:31:22;;;;;;;4.97;2.78;;;;;;;;;;7426688;19;20144;-91
2022/06/05 12:33:50;;;;;;;7.63;2.58;;;;;;;;;;7429543;19;20156;-92
2022/06/05 12:36:29;;;;;;;5.18;2.78;;;;;;;;;;7427344;19;20149;-90
2022/06/05 12:38:58;;;;;;;3.83;2.50;;;;;;;;;;7416777;19;20179;-90
2022/06/05 12:41:25;;;;;;;7.60;3.75;;;;;;;;;;7401886;19;20139;-89
2022/06/05 12:44:01;;;;;;;11.18;2.97;;;;;;;;;;7403085;19;20544;-88
2022/06/05 12:46:31;;;;;;;7.80;2.88;;;;;;;;;;7403831;19;20167;-90
2022/06/05 12:49:23;;;;;;;4.45;2.10;;;;;;;;;;7399589;19;20188;-88
2022/06/05 12:52:08;;;;;;;5.68;2.50;;;;;;;;;;7400766;19;20201;-84
2022/06/05 12:54:57;;;;;;;4.72;2.10;;;;;;;;;;7398232;19;20170;-87
2022/06/05 12:57:37;;;;;;;7.80;2.05;;;;;;;;;;7400561;19;20173;-89
2022/06/05 13:00:18;;;;;;;5.97;2.00;;;;;;;;;;7393984;19;20152;-88
2022/06/05 13:02:49;;;;;;;4.50;2.15;;;;;;;;;;7401479;19;20184;-86
2022/06/05 13:05:35;;;;;;;3.28;2.00;;;;;;;;;;7398276;19;20137;-85
2022/06/05 13:08:07;;;;;;;4.82;2.08;;;;;;;;;;7398491;19;20172;-86
2022/06/05 13:10:39;;;;;;;4.03;2.60;;;;;;;;;;7405694;19;20141;-85
2022/06/05 13:13:13;;;;;;;3.92;1.70;;;;;;;;;;7405629;19;20145;-87
2022/06/05 14:19:31;;;;;;;4.70;2.33;;;;;;;;;;7388780;19;20196;-80
2022/06/05 14:22:07;;;;;;;3.10;2.15;;;;;;;;;;7391087;19;20149;-81
2022/06/05 14:24:47;;;;;;;3.75;1.90;;;;;;;;;;7391519;19;20153;-82
2022/06/05 14:27:19;;;;;;;4.57;1.98;;;;;;;;;;7389212;19;20240;-80
2022/06/05 14:29:53;;;;;;;5.20;2.00;;;;;;;;;;7390880;19;20179;-82
2022/06/05 14:32:28;;;;;;;4.43;2.42;;;;;;;;;;7390730;19;20269;-82
2022/06/05 14:35:14;;;;;;;5.72;2.20;;;;;;;;;;7391401;19;20811;-80
2022/06/05 14:37:48;;;;;;;4.15;1.92;;;;;;;;;;7391785;19;20631;-82
2022/06/05 14:40:16;;;;;;;3.75;1.80;;;;;;;;;;7386833;19;20153;-80
2022/06/05 14:42:54;;;;;;;4.85;1.70;;;;;;;;;;7391653;19;20160;-82
2022/06/05 14:45:21;;;;;;;6.10;2.10;;;;;;;;;;7391548;19;20172;-80
2022/06/05 14:47:50;;;;;;;4.80;2.30;;;;;;;;;;7391788;19;20195;-82
2022/06/05 14:50:22;;;;;;;10.07;2.88;;;;;;;;;;7391277;19;20128;-83
2022/06/05 14:53:02;;;;;;;6.32;2.50;;;;;;;;;;7388793;19;20642;-80
2022/06/05 14:58:40;;;;;;;4.20;2.35;;;;;;;;;;7391632;19;20608;-79
2022/06/05 15:01:21;;;;;;;7.10;2.67;;;;;;;;;;7388077;19;20153;-79
2022/06/05 15:03:56;;;;;;;5.03;2.53;;;;;;;;;;7389247;19;20634;-82
2022/06/05 15:06:26;;;;;;;4.68;2.55;;;;;;;;;;7390202;19;20165;-83
2022/06/05 15:08:56;;;;;;;4.93;2.67;;;;;;;;;;7392601;19;20133;-79
2022/06/05 15:11:29;;;;;;;7.10;2.50;;;;;;;;;;7389993;19;20541;-83
2022/06/05 15:14:00;;;;;;;3.20;2.30;;;;;;;;;;7387411;19;20148;-79
2022/06/05 15:16:32;;;;;;;5.32;2.55;;;;;;;;;;7386404;19;20669;-83
2022/06/05 15:19:00;;;;;;;4.03;2.33;;;;;;;;;;7388251;19;20152;-83
2022/06/05 15:21:30;;;;;;;4.93;2.70;;;;;;;;;;7388094;19;20139;-79
2022/06/05 15:24:08;;;;;;;5.57;2.80;;;;;;;;;;7389038;19;20670;-79
2022/06/05 15:26:50;;;;;;;5.40;2.75;;;;;;;;;;7389035;19;20148;-78
2022/06/05 15:29:28;;;;;;;4.32;2.50;;;;;;;;;;7388200;19;20148;-79
2022/06/05 15:32:13;;;;;;;5.57;2.63;;;;;;;;;;7387602;19;20606;-79
2022/06/05 15:34:39;;;;;;;4.88;2.60;;;;;;;;;;7389459;19;20613;-81
2022/06/05 15:37:17;;;;;;;9.85;4.05;;;;;;;;;;7386933;19;20153;-81
2022/06/05 15:39:48;;;;;;;4.95;2.58;;;;;;;;;;7387628;19;20128;-79
2022/06/05 15:42:26;;;;;;;7.97;3.03;;;;;;;;;;7388120;19;20137;-79
2022/06/05 15:44:58;;;;;;;7.72;3.10;;;;;;;;;;7388731;19;20218;-79
2022/06/05 15:47:47;;;;;;;5.47;2.80;;;;;;;;;;7386863;19;20149;-79
2022/06/05 15:50:12;;;;;;;5.50;2.58;;;;;;;;;;7384458;19;20518;-80
2022/06/05 15:52:45;;;;;;;4.28;2.58;;;;;;;;;;7386747;19;20149;-78
2022/06/05 15:55:26;;;;;;;7.10;2.53;;;;;;;;;;7389051;19;20201;-79
2022/06/05 15:58:20;;;;;;;4.18;2.20;;;;;;;;;;7386748;19;20162;-82
2022/06/05 16:01:09;;;;;;;3.25;2.13;;;;;;;;;;7387795;19;20155;-79
2022/06/05 16:03:38;;;;;;;7.00;2.10;;;;;;;;;;7384032;19;20157;-80
2022/06/05 16:06:04;;;;;;;5.90;2.13;;;;;;;;;;7386404;19;20177;-82
2022/06/05 16:08:53;;;;;;;5.68;2.72;;;;;;;;;;7387798;19;20157;-81
2022/06/05 16:11:24;;;;;;;5.72;2.25;;;;;;;;;;7385002;19;20236;-79
2022/06/05 16:14:04;;;;;;;5.15;2.30;;;;;;;;;;7384323;19;20533;-83
2022/06/05 16:16:47;;;;;;;7.22;2.20;;;;;;;;;;7385940;19;20171;-80
2022/06/05 16:19:20;;;;;;;3.28;2.00;;;;;;;;;;7388950;19;20149;-84
2022/06/05 16:22:06;;;;;;;2.78;2.15;;;;;;;;;;7391586;19;20121;-81
2022/06/05 16:24:52;;;;;;;3.65;2.10;;;;;;;;;;7385455;19;20173;-80
2022/06/05 16:27:30;;;;;;;2.35;2.03;;;;;;;;;;7385269;19;20149;-80
2022/06/05 16:29:57;;;;;;;4.78;2.50;;;;;;;;;;7372699;19;20622;-80
2022/06/05 16:32:38;;;;;;;21.13;3.17;;;;;;;;;;7384041;19;20487;-81
2022/06/05 16:38:14;;;;;;;3.80;2.17;;;;;;;;;;7382624;19;20193;-83